createdAt,value
2022-12-08T00:03:40.083Z,18.93
2022-12-08T00:11:04.218Z,18.94
2022-12-08T00:18:48.228Z,18.92
2022-12-08T00:26:32.085Z,18.82
2022-12-08T00:33:47.587Z,18.9
2022-12-08T00:41:02.454Z,18.93
2022-12-08T00:48:37.040Z,18.87
2022-12-08T00:56:26.593Z,18.85
2022-12-08T01:03:43.628Z,18.88
2022-12-08T01:11:21.405Z,18.84
2022-12-08T01:18:40.250Z,18.91
2022-12-08T01:26:02.498Z,18.87
2022-12-08T01:33:33.215Z,18.85
2022-12-08T01:40:58.600Z,18.94
2022-12-08T01:48:43.577Z,18.83
2022-12-08T01:56:37.476Z,18.8
2022-12-08T02:04:29.989Z,18.83
2022-12-08T02:11:56.056Z,18.83
2022-12-08T02:19:31.843Z,18.74
2022-12-08T02:27:24.212Z,18.81
2022-12-08T02:35:18.144Z,18.79
2022-12-08T02:43:11.634Z,18.77
2022-12-08T02:51:12.033Z,18.96
2022-12-08T02:59:01.665Z,18.89
2022-12-08T03:06:59.688Z,18.91
2022-12-08T03:15:08.062Z,19.07
2022-12-08T03:22:50.279Z,19.02
2022-12-08T03:30:49.305Z,19.11
2022-12-08T03:38:49.190Z,19.06
2022-12-08T03:53:52.246Z,18.83
2022-12-08T04:01:13.049Z,18.86
2022-12-08T04:08:17.637Z,18.85
2022-12-08T04:15:08.023Z,18.96
2022-12-08T04:21:47.102Z,19.29
2022-12-08T04:28:14.276Z,19.54
2022-12-08T04:34:39.188Z,19.34
2022-12-08T04:41:06.280Z,19.58
2022-12-08T04:47:36.309Z,20.29
2022-12-08T04:54:05.259Z,20.77
2022-12-08T05:00:34.281Z,20.93
2022-12-08T05:06:58.247Z,21.02
2022-12-08T05:13:30.649Z,20.94
2022-12-08T05:20:03.073Z,21.01
2022-12-08T05:26:31.332Z,21.07
2022-12-08T05:32:56.244Z,20.85
2022-12-08T05:39:33.656Z,20.82
2022-12-08T05:46:03.299Z,20.89
2022-12-08T05:52:34.719Z,20.81
2022-12-08T05:59:11.581Z,20.71
2022-12-08T06:05:37.548Z,20.6
2022-12-08T06:12:05.382Z,20.52
2022-12-08T06:18:33.282Z,20.91
2022-12-08T06:25:03.212Z,21.44
2022-12-08T06:31:44.189Z,21.68
2022-12-08T06:38:15.299Z,21.9
2022-12-08T06:44:41.278Z,21.87
2022-12-08T06:51:18.181Z,22.26
2022-12-08T06:57:46.321Z,22.5
2022-12-08T07:04:12.326Z,22.6
2022-12-08T07:10:40.261Z,22.14
2022-12-08T07:17:06.425Z,22.11
2022-12-08T07:23:29.371Z,22.06
2022-12-08T07:30:05.554Z,22.14
2022-12-08T07:36:37.842Z,22.23
2022-12-08T07:43:07.628Z,22.11
2022-12-08T07:49:36.533Z,22.12
2022-12-08T07:56:06.810Z,22.19
2022-12-08T08:02:35.227Z,22.11
2022-12-08T08:08:59.279Z,21.98
2022-12-08T08:15:28.662Z,21.82
2022-12-08T08:22:04.298Z,21.67
2022-12-08T08:28:42.192Z,21.56
2022-12-08T08:35:16.385Z,21.26
2022-12-08T08:41:49.451Z,21.21
2022-12-08T08:48:21.826Z,21.03
2022-12-08T08:54:50.746Z,20.92
2022-12-08T09:01:13.840Z,20.77
2022-12-08T09:07:39.671Z,20.79
2022-12-08T09:14:06.200Z,20.74
2022-12-08T09:20:35.314Z,20.73
2022-12-08T09:27:08.472Z,20.66
2022-12-08T09:33:37.416Z,20.63
2022-12-08T09:40:03.120Z,20.64
2022-12-08T09:46:57.595Z,20.6
2022-12-08T09:54:00.175Z,20.63
2022-12-08T10:00:48.458Z,20.66
2022-12-08T10:07:41.623Z,20.57
2022-12-08T10:14:50.318Z,20.47
2022-12-08T10:21:53.436Z,20.53
2022-12-08T10:28:44.656Z,20.53
2022-12-08T10:35:42.734Z,20.44
2022-12-08T10:42:41.557Z,20.42
2022-12-08T10:49:40.462Z,20.49
2022-12-08T10:56:31.394Z,20.49
2022-12-08T11:03:03.550Z,20.45
2022-12-08T11:09:54.304Z,20.34
2022-12-08T11:16:36.613Z,20.38
2022-12-08T11:23:50.347Z,20.31
2022-12-08T11:30:30.781Z,20.16
2022-12-08T11:37:40.433Z,20.12
2022-12-08T11:44:35.661Z,20.13
2022-12-08T11:51:41.554Z,20.07
2022-12-08T11:58:50.979Z,20.19
2022-12-08T12:06:18.469Z,20.24
2022-12-08T12:13:09.596Z,20.16
2022-12-08T12:20:16.229Z,20.19
2022-12-08T12:27:31.345Z,20.17
2022-12-08T12:34:48.347Z,20.08
2022-12-08T12:42:10.790Z,19.88
2022-12-08T12:49:10.295Z,19.93
2022-12-08T12:57:13.340Z,19.57
2022-12-08T13:05:40.279Z,19.53
2022-12-08T13:14:08.292Z,19.43
2022-12-08T13:22:14.915Z,19.36
2022-12-08T13:30:05.661Z,19.3
2022-12-08T13:38:23.268Z,19.3
2022-12-08T13:55:19.989Z,19.31
2022-12-08T14:02:48.638Z,19.22
2022-12-08T14:10:45.711Z,19.33
2022-12-08T14:18:29.518Z,19.31
2022-12-08T14:25:58.910Z,19.29
2022-12-08T14:33:33.724Z,19.28
2022-12-08T14:41:19.536Z,19.4
2022-12-08T14:49:12.291Z,19.4
2022-12-08T14:57:10.727Z,19.42
2022-12-08T15:04:55.816Z,19.36
2022-12-08T15:12:40.925Z,19.33
2022-12-08T15:20:38.693Z,19.46
2022-12-08T15:28:15.561Z,19.29
2022-12-08T15:35:40.860Z,19.25
2022-12-08T15:43:03.267Z,19.24
2022-12-08T15:50:27.080Z,19.17
2022-12-08T16:06:01.527Z,19.21
2022-12-08T16:21:09.494Z,19.35
2022-12-08T16:28:54.532Z,19.37
2022-12-08T16:36:29.825Z,19.32
2022-12-08T16:44:05.747Z,19.34
2022-12-08T16:51:58.996Z,19.35
2022-12-08T16:59:24.370Z,19.3
2022-12-08T17:06:56.476Z,19.26
2022-12-08T17:14:05.021Z,19.3
2022-12-08T17:21:23.440Z,19.3
2022-12-08T17:28:59.275Z,19.27
2022-12-08T17:36:31.607Z,19.38
2022-12-08T17:44:03.451Z,19.41
2022-12-08T17:51:39.415Z,19.39
2022-12-08T17:59:09.849Z,19.31
2022-12-08T18:06:31.278Z,19.4
2022-12-08T18:14:09.714Z,19.39
2022-12-08T18:21:34.098Z,19.26
2022-12-08T18:29:02.617Z,19.26
2022-12-08T18:36:20.870Z,19.27
2022-12-08T18:43:50.988Z,19.25
2022-12-08T18:51:14.208Z,19.37
2022-12-08T18:58:40.644Z,19.4
2022-12-08T19:05:59.012Z,19.36
2022-12-08T19:13:27.318Z,19.36
2022-12-08T19:21:02.140Z,19.41
2022-12-08T19:28:23.343Z,19.35
2022-12-08T19:35:41.484Z,19.31
2022-12-08T19:43:16.477Z,19.36
2022-12-08T19:50:41.741Z,19.35
2022-12-08T19:57:45.810Z,19.28
2022-12-08T20:04:53.140Z,19.21
2022-12-08T20:12:24.810Z,19.29
2022-12-08T20:19:48.046Z,19.34
2022-12-08T20:27:10.899Z,19.32
2022-12-08T20:34:22.963Z,19.31
2022-12-08T20:41:52.961Z,19.35
2022-12-08T20:49:10.783Z,19.25
2022-12-08T20:56:27.195Z,19.26
2022-12-08T21:03:43.405Z,19.23
2022-12-08T21:10:59.846Z,19.22
2022-12-08T21:18:15.626Z,19.34
2022-12-08T21:25:43.355Z,19.29
2022-12-08T21:33:02.171Z,19.27
2022-12-08T21:40:22.906Z,19.17
2022-12-08T21:47:43.227Z,19.09
2022-12-08T21:54:59.363Z,19.11
2022-12-08T22:02:24.605Z,19.13
2022-12-08T22:09:53.187Z,19.05
2022-12-08T22:17:26.221Z,19.07
2022-12-08T22:24:58.435Z,19
2022-12-08T22:32:36.713Z,19.07
2022-12-08T22:40:10.958Z,19.01
2022-12-08T22:47:42.459Z,18.99
2022-12-08T22:55:18.244Z,18.97
2022-12-08T23:02:58.414Z,18.98
2022-12-08T23:10:34.541Z,18.94
2022-12-08T23:18:11.141Z,18.85
2022-12-08T23:25:40.870Z,18.89
2022-12-08T23:33:13.774Z,18.94
2022-12-08T23:40:55.038Z,18.93
2022-12-08T23:48:21.908Z,18.99
2022-12-08T23:56:06.819Z,18.88
